createdAt,value
2019-05-10T00:00:17.462Z,99.90
2019-05-10T00:03:03.795Z,99.90
2019-05-10T00:05:49.549Z,99.90
2019-05-10T00:08:35.568Z,99.90
2019-05-10T00:11:18.564Z,99.90
2019-05-10T00:13:49.995Z,99.90
2019-05-10T00:16:17.797Z,99.90
2019-05-10T00:18:45.584Z,99.90
2019-05-10T00:21:13.275Z,99.90
2019-05-10T00:23:40.978Z,99.90
2019-05-10T00:26:08.764Z,99.90
2019-05-10T00:28:36.835Z,99.90
2019-05-10T00:31:04.453Z,99.90
2019-05-10T00:33:32.691Z,99.90
2019-05-10T00:36:00.217Z,99.90
2019-05-10T00:38:28.018Z,99.90
2019-05-10T00:40:55.890Z,99.90
2019-05-10T00:43:23.480Z,99.90
2019-05-10T00:45:51.288Z,99.90
2019-05-10T00:48:18.846Z,99.90
2019-05-10T00:50:46.663Z,99.90
2019-05-10T00:53:14.551Z,99.90
2019-05-10T00:55:42.116Z,99.90
2019-05-10T00:58:09.674Z,99.90
2019-05-10T01:00:37.803Z,99.90
2019-05-10T01:03:05.345Z,99.90
2019-05-10T01:05:32.945Z,99.90
2019-05-10T01:08:00.559Z,99.90
2019-05-10T01:10:28.072Z,99.90
2019-05-10T01:12:56.293Z,99.90
2019-05-10T01:15:23.908Z,99.90
2019-05-10T01:17:51.701Z,99.90
2019-05-10T01:20:19.525Z,99.90
2019-05-10T01:22:47.046Z,99.90
2019-05-10T01:25:14.683Z,99.90
2019-05-10T01:27:42.232Z,99.90
2019-05-10T01:30:09.993Z,99.90
2019-05-10T01:32:37.519Z,99.90
2019-05-10T01:35:05.097Z,99.90
2019-05-10T01:37:32.666Z,99.90
2019-05-10T01:40:00.073Z,99.90
2019-05-10T01:42:27.612Z,99.90
2019-05-10T01:44:55.139Z,99.90
2019-05-10T01:47:22.639Z,99.90
2019-05-10T01:49:50.393Z,99.90
2019-05-10T01:52:17.833Z,99.90
2019-05-10T01:54:45.368Z,99.90
2019-05-10T01:57:13.225Z,99.90
2019-05-10T01:59:40.764Z,99.90
2019-05-10T02:02:08.306Z,99.90
2019-05-10T02:04:36.765Z,99.90
2019-05-10T02:07:04.841Z,99.90
2019-05-10T02:09:33.343Z,99.90
2019-05-10T02:12:01.391Z,99.90
2019-05-10T02:14:29.167Z,99.90
2019-05-10T02:16:56.707Z,99.90
2019-05-10T02:19:24.483Z,99.90
2019-05-10T02:21:52.300Z,99.90
2019-05-10T02:24:20.136Z,99.90
2019-05-10T02:26:48.153Z,99.90
2019-05-10T02:29:15.862Z,99.90
2019-05-10T02:31:43.618Z,99.90
2019-05-10T02:34:11.344Z,99.90
2019-05-10T02:36:39.271Z,99.90
2019-05-10T02:39:07.454Z,99.90
2019-05-10T02:41:35.206Z,99.90
2019-05-10T02:44:03.072Z,99.90
2019-05-10T02:46:30.577Z,99.90
2019-05-10T02:48:58.635Z,99.90
2019-05-10T02:51:26.319Z,99.90
2019-05-10T02:53:54.006Z,99.90
2019-05-10T02:56:30.554Z,99.90
2019-05-10T02:58:54.477Z,99.90
2019-05-10T03:01:24.614Z,99.90
2019-05-10T03:03:53.212Z,99.90
2019-05-10T03:06:21.892Z,99.90
2019-05-10T03:08:50.486Z,99.90
2019-05-10T03:11:18.697Z,99.90
2019-05-10T03:13:48.274Z,99.90
2019-05-10T03:16:18.671Z,99.90
2019-05-10T03:18:47.768Z,99.90
2019-05-10T03:21:17.177Z,99.90
2019-05-10T03:23:45.385Z,99.90
2019-05-10T03:26:12.923Z,99.90
2019-05-10T03:28:40.739Z,99.90
2019-05-10T03:31:08.207Z,99.90
2019-05-10T03:33:35.842Z,99.90
2019-05-10T03:36:03.437Z,99.90
2019-05-10T03:38:31.195Z,99.90
2019-05-10T03:40:59.068Z,99.90
2019-05-10T03:43:26.665Z,99.90
2019-05-10T03:45:54.469Z,99.90
2019-05-10T03:48:22.047Z,99.90
2019-05-10T03:50:49.701Z,99.90
2019-05-10T03:53:17.243Z,99.90
2019-05-10T03:55:44.791Z,99.90
2019-05-10T03:58:12.873Z,99.90
2019-05-10T04:00:40.409Z,99.90
2019-05-10T04:03:07.912Z,99.90
2019-05-10T04:05:35.756Z,99.90
2019-05-10T04:08:03.546Z,99.90
2019-05-10T04:10:31.453Z,99.90
2019-05-10T04:12:58.965Z,99.90
2019-05-10T04:15:26.477Z,99.90
2019-05-10T04:17:54.067Z,99.90
2019-05-10T04:20:21.860Z,99.90
2019-05-10T04:22:49.694Z,99.90
2019-05-10T04:25:17.407Z,99.90
2019-05-10T04:27:46.228Z,99.90
2019-05-10T04:30:14.089Z,99.90
2019-05-10T04:32:41.747Z,99.90
2019-05-10T04:35:09.586Z,99.90
2019-05-10T04:37:37.411Z,99.90
2019-05-10T04:40:04.892Z,99.90
2019-05-10T04:42:32.924Z,99.90
2019-05-10T04:45:00.397Z,99.90
2019-05-10T04:47:28.187Z,99.90
2019-05-10T04:49:56.276Z,99.90
2019-05-10T04:52:24.260Z,99.90
2019-05-10T04:54:51.759Z,99.90
2019-05-10T04:57:19.274Z,99.90
2019-05-10T04:59:47.120Z,99.90
2019-05-10T05:02:14.523Z,99.90
2019-05-10T05:04:42.367Z,99.90
2019-05-10T05:07:10.179Z,99.90
2019-05-10T05:09:37.896Z,99.90
2019-05-10T05:12:05.767Z,99.90
2019-05-10T05:14:33.304Z,99.90
2019-05-10T05:17:00.866Z,99.90
2019-05-10T05:19:28.670Z,99.90
2019-05-10T05:21:57.065Z,99.90
2019-05-10T05:24:24.658Z,99.90
2019-05-10T05:26:52.559Z,99.90
2019-05-10T05:29:20.410Z,99.90
2019-05-10T05:31:53.808Z,99.90
2019-05-10T05:34:18.295Z,99.90
2019-05-10T05:36:46.082Z,99.90
2019-05-10T05:39:13.619Z,99.90
2019-05-10T05:41:48.759Z,99.90
2019-05-10T05:44:11.400Z,99.90
2019-05-10T05:46:38.954Z,99.90
2019-05-10T05:49:06.616Z,99.90
2019-05-10T05:51:34.890Z,99.90
2019-05-10T05:54:04.189Z,99.90
2019-05-10T05:56:32.085Z,99.90
2019-05-10T05:58:59.914Z,99.90
2019-05-10T06:01:29.534Z,99.90
2019-05-10T06:04:00.050Z,99.90
2019-05-10T06:06:27.310Z,99.90
2019-05-10T06:08:59.603Z,99.90
2019-05-10T06:11:29.725Z,99.90
2019-05-10T06:13:54.811Z,99.90
2019-05-10T06:16:23.218Z,99.90
2019-05-10T06:18:50.762Z,99.90
2019-05-10T06:21:24.507Z,99.90
2019-05-10T06:23:49.452Z,99.90
2019-05-10T06:26:26.249Z,99.90
2019-05-10T06:29:04.664Z,99.90
2019-05-10T06:31:16.199Z,99.90
2019-05-10T06:33:45.030Z,99.90
2019-05-10T06:36:13.283Z,99.90
2019-05-10T06:38:41.271Z,99.90
2019-05-10T06:41:10.019Z,99.90
2019-05-10T06:43:38.249Z,99.90
2019-05-10T06:46:06.184Z,99.90
2019-05-10T06:48:33.866Z,99.90
2019-05-10T06:51:02.923Z,99.90
2019-05-10T06:53:31.193Z,99.90
2019-05-10T06:55:58.832Z,99.90
2019-05-10T06:58:30.605Z,99.90
2019-05-10T07:00:56.090Z,99.90
2019-05-10T07:03:24.534Z,99.90
2019-05-10T07:05:52.307Z,99.90
2019-05-10T07:08:20.550Z,99.90
2019-05-10T07:10:48.263Z,99.90
2019-05-10T07:13:15.813Z,99.90
2019-05-10T07:15:44.823Z,99.40
2019-05-10T07:18:16.776Z,99.90
2019-05-10T07:20:43.269Z,99.80
2019-05-10T07:23:11.109Z,99.30
2019-05-10T07:25:43.878Z,99.70
2019-05-10T07:28:09.674Z,99.50
2019-05-10T07:30:41.177Z,99.00
2019-05-10T07:33:06.998Z,99.60
2019-05-10T07:35:36.955Z,98.20
2019-05-10T07:38:04.310Z,98.60
2019-05-10T07:40:31.870Z,98.70
2019-05-10T07:42:59.426Z,98.30
2019-05-10T07:45:27.534Z,97.80
2019-05-10T07:47:54.997Z,97.80
2019-05-10T07:50:22.781Z,97.60
2019-05-10T07:52:50.621Z,97.50
2019-05-10T07:55:27.999Z,97.10
2019-05-10T07:57:48.560Z,97.40
2019-05-10T08:00:18.083Z,96.90
2019-05-10T08:02:55.018Z,97.00
2019-05-10T08:05:15.474Z,96.10
2019-05-10T08:07:43.475Z,96.70
2019-05-10T08:10:12.232Z,95.90
2019-05-10T08:12:45.282Z,96.40
2019-05-10T08:15:09.688Z,96.20
2019-05-10T08:17:43.277Z,96.00
2019-05-10T08:20:08.999Z,95.20
2019-05-10T08:22:41.552Z,95.00
2019-05-10T08:25:06.703Z,93.60
2019-05-10T08:27:34.281Z,93.40
2019-05-10T08:30:19.983Z,94.70
2019-05-10T08:32:34.529Z,94.70
2019-05-10T08:35:05.020Z,93.30
2019-05-10T08:37:36.004Z,94.10
2019-05-10T08:40:00.119Z,92.70
2019-05-10T08:42:42.838Z,93.90
2019-05-10T08:45:03.741Z,94.00
2019-05-10T08:47:27.826Z,94.00
2019-05-10T08:50:08.714Z,93.00
2019-05-10T08:52:30.864Z,93.00
2019-05-10T08:54:55.295Z,92.20
2019-05-10T08:57:23.007Z,92.70
2019-05-10T08:59:54.111Z,92.70
2019-05-10T09:02:28.656Z,91.50
2019-05-10T09:04:50.321Z,92.60
2019-05-10T09:07:19.523Z,90.40
2019-05-10T09:09:50.077Z,89.40
2019-05-10T09:12:16.438Z,86.20
2019-05-10T09:14:44.143Z,88.00
2019-05-10T09:17:14.852Z,88.80
2019-05-10T09:19:44.145Z,87.50
2019-05-10T09:22:12.483Z,89.70
2019-05-10T09:24:41.038Z,84.40
2019-05-10T09:27:09.735Z,83.70
2019-05-10T09:29:37.696Z,85.90
2019-05-10T09:32:06.699Z,84.90
2019-05-10T09:34:34.389Z,85.80
2019-05-10T09:37:02.977Z,85.50
2019-05-10T09:39:32.142Z,83.30
2019-05-10T09:42:06.186Z,80.80
2019-05-10T09:44:29.479Z,80.90
2019-05-10T09:46:56.999Z,82.50
2019-05-10T09:49:24.558Z,81.50
2019-05-10T09:51:54.879Z,83.10
2019-05-10T09:54:23.140Z,81.40
2019-05-10T09:56:52.580Z,78.80
2019-05-10T09:59:20.899Z,79.60
2019-05-10T10:01:48.543Z,79.90
2019-05-10T10:04:17.836Z,79.00
2019-05-10T10:06:50.505Z,79.60
2019-05-10T10:09:17.079Z,82.60
2019-05-10T10:11:48.554Z,87.70
2019-05-10T10:14:14.559Z,82.70
2019-05-10T10:16:48.865Z,80.50
2019-05-10T10:19:12.197Z,79.50
2019-05-10T10:21:39.703Z,81.20
2019-05-10T10:24:15.572Z,78.40
2019-05-10T10:26:38.178Z,76.00
2019-05-10T10:29:07.340Z,74.70
2019-05-10T10:31:48.334Z,76.50
2019-05-10T10:34:07.344Z,79.10
2019-05-10T10:36:40.228Z,78.80
2019-05-10T10:39:07.432Z,81.00
2019-05-10T10:41:35.024Z,80.00
2019-05-10T10:44:02.644Z,75.00
2019-05-10T10:46:34.246Z,78.80
2019-05-10T10:49:01.244Z,74.90
2019-05-10T10:51:32.169Z,80.60
2019-05-10T10:53:59.227Z,79.90
2019-05-10T10:56:27.699Z,78.30
2019-05-10T10:58:57.896Z,76.50
2019-05-10T11:01:25.767Z,75.90
2019-05-10T11:03:55.229Z,75.40
2019-05-10T11:06:23.693Z,74.90
2019-05-10T11:08:51.892Z,77.30
2019-05-10T11:11:20.207Z,74.00
2019-05-10T11:13:57.357Z,74.50
2019-05-10T11:16:17.997Z,73.50
2019-05-10T11:18:45.537Z,71.20
2019-05-10T11:21:13.524Z,71.50
2019-05-10T11:23:41.903Z,73.60
2019-05-10T11:26:10.831Z,67.60
2019-05-10T11:28:43.338Z,66.60
2019-05-10T11:31:08.252Z,70.00
2019-05-10T11:33:35.788Z,67.40
2019-05-10T11:36:08.450Z,68.00
2019-05-10T11:38:32.957Z,66.70
2019-05-10T11:41:01.995Z,66.60
2019-05-10T11:43:31.340Z,67.70
2019-05-10T11:45:59.056Z,66.70
2019-05-10T11:48:31.100Z,69.00
2019-05-10T11:50:55.984Z,66.20
2019-05-10T11:53:23.944Z,65.40
2019-05-10T11:55:51.867Z,65.80
2019-05-10T11:58:23.469Z,66.30
2019-05-10T12:00:55.941Z,70.80
2019-05-10T12:03:23.106Z,69.30
2019-05-10T12:05:56.454Z,68.80
2019-05-10T12:08:18.340Z,65.80
2019-05-10T12:10:52.984Z,67.70
2019-05-10T12:13:19.897Z,62.10
2019-05-10T12:15:44.729Z,64.00
2019-05-10T12:18:15.146Z,64.50
2019-05-10T12:20:55.898Z,67.10
2019-05-10T12:23:23.123Z,62.50
2019-05-10T12:25:57.488Z,63.30
2019-05-10T12:28:15.424Z,63.80
2019-05-10T12:30:40.953Z,63.70
2019-05-10T12:33:12.459Z,63.50
2019-05-10T12:35:44.568Z,61.70
2019-05-10T12:38:07.906Z,64.40
2019-05-10T12:40:36.058Z,65.40
2019-05-10T12:43:03.614Z,63.00
2019-05-10T12:45:31.550Z,63.30
2019-05-10T12:48:01.342Z,64.50
2019-05-10T12:50:29.191Z,62.90
2019-05-10T12:53:13.774Z,61.30
2019-05-10T12:55:27.010Z,61.50
2019-05-10T12:57:54.836Z,60.40
2019-05-10T13:00:23.371Z,61.40
2019-05-10T13:02:53.301Z,62.50
2019-05-10T13:05:30.851Z,63.20
2019-05-10T13:07:50.613Z,63.10
2019-05-10T13:10:18.221Z,62.90
2019-05-10T13:12:47.472Z,60.80
2019-05-10T13:15:15.599Z,61.00
2019-05-10T13:17:50.233Z,62.80
2019-05-10T13:20:12.907Z,59.70
2019-05-10T13:22:40.500Z,60.30
2019-05-10T13:25:09.134Z,61.60
2019-05-10T13:27:37.122Z,62.20
2019-05-10T13:30:05.868Z,60.30
2019-05-10T13:32:33.445Z,60.50
2019-05-10T13:35:01.746Z,60.80
2019-05-10T13:37:29.612Z,59.50
2019-05-10T13:39:58.342Z,57.60
2019-05-10T13:42:26.819Z,54.70
2019-05-10T13:44:54.365Z,53.10
2019-05-10T13:47:22.270Z,57.70
2019-05-10T13:49:50.232Z,55.40
2019-05-10T13:52:17.732Z,56.70
2019-05-10T13:54:45.667Z,57.60
2019-05-10T13:57:13.602Z,57.80
2019-05-10T13:59:41.139Z,55.40
2019-05-10T14:02:08.700Z,54.90
2019-05-10T14:04:38.563Z,54.30
2019-05-10T14:07:06.626Z,56.30
2019-05-10T14:09:34.487Z,56.30
2019-05-10T14:12:02.298Z,57.80
2019-05-10T14:14:30.161Z,58.90
2019-05-10T14:16:58.402Z,58.80
2019-05-10T14:19:26.329Z,59.80
2019-05-10T14:21:54.431Z,59.90
2019-05-10T14:24:22.367Z,60.80
2019-05-10T14:26:51.399Z,61.80
2019-05-10T14:29:19.663Z,61.10
2019-05-10T14:31:47.830Z,59.20
2019-05-10T14:34:15.876Z,59.80
2019-05-10T14:36:43.969Z,60.70
2019-05-10T14:39:11.498Z,61.40
2019-05-10T14:41:40.111Z,61.60
2019-05-10T14:44:07.895Z,58.80
2019-05-10T14:46:35.512Z,58.90
2019-05-10T14:49:09.581Z,59.20
2019-05-10T14:51:49.594Z,57.00
2019-05-10T14:54:06.503Z,59.20
2019-05-10T14:56:32.142Z,56.20
2019-05-10T14:58:59.789Z,58.10
2019-05-10T15:01:28.014Z,59.80
2019-05-10T15:03:55.966Z,60.50
2019-05-10T15:06:23.672Z,60.70
2019-05-10T15:08:51.465Z,56.50
2019-05-10T15:11:19.007Z,58.90
2019-05-10T15:13:46.692Z,60.80
2019-05-10T15:16:26.406Z,60.40
2019-05-10T15:18:44.620Z,61.00
2019-05-10T15:21:12.503Z,59.60
2019-05-10T15:23:40.063Z,61.40
2019-05-10T15:26:11.650Z,62.30
2019-05-10T15:28:40.224Z,60.20
2019-05-10T15:31:08.703Z,61.70
2019-05-10T15:33:36.313Z,60.70
2019-05-10T15:36:03.981Z,61.00
2019-05-10T15:38:31.795Z,62.30
2019-05-10T15:40:59.809Z,62.00
2019-05-10T15:43:27.986Z,61.10
2019-05-10T15:45:55.939Z,61.10
2019-05-10T15:48:23.840Z,62.30
2019-05-10T15:50:51.667Z,62.20
2019-05-10T15:53:24.813Z,62.90
2019-05-10T15:55:48.931Z,62.30
2019-05-10T15:58:16.552Z,61.70
2019-05-10T16:00:44.115Z,63.10
2019-05-10T16:03:12.064Z,62.00
2019-05-10T16:05:43.384Z,59.30
2019-05-10T16:08:13.518Z,57.20
2019-05-10T16:10:40.983Z,57.40
2019-05-10T16:13:08.726Z,56.20
2019-05-10T16:15:36.567Z,57.50
2019-05-10T16:18:04.360Z,57.40
2019-05-10T16:20:37.118Z,56.30
2019-05-10T16:23:06.358Z,54.50
2019-05-10T16:25:32.839Z,54.20
2019-05-10T16:28:01.134Z,53.90
2019-05-10T16:30:29.972Z,52.00
2019-05-10T16:32:57.697Z,52.20
2019-05-10T16:35:38.143Z,53.20
2019-05-10T16:37:54.701Z,53.00
2019-05-10T16:40:22.489Z,52.20
2019-05-10T16:42:50.416Z,52.50
2019-05-10T16:45:18.215Z,52.50
2019-05-10T16:47:46.316Z,53.80
2019-05-10T16:50:14.449Z,54.10
2019-05-10T16:52:42.828Z,57.10
2019-05-10T16:55:10.537Z,58.20
2019-05-10T16:57:39.491Z,59.70
2019-05-10T17:00:08.653Z,59.20
2019-05-10T17:02:42.124Z,60.10
2019-05-10T17:05:09.544Z,59.00
2019-05-10T17:07:36.485Z,59.90
2019-05-10T17:10:04.954Z,59.30
2019-05-10T17:12:33.118Z,55.90
2019-05-10T17:15:02.947Z,53.10
2019-05-10T17:17:31.216Z,49.60
2019-05-10T17:20:00.358Z,49.60
2019-05-10T17:22:27.985Z,50.00
2019-05-10T17:24:57.063Z,49.20
2019-05-10T17:27:25.410Z,50.80
2019-05-10T17:29:53.353Z,53.30
2019-05-10T17:32:24.674Z,52.00
2019-05-10T17:34:50.852Z,52.50
2019-05-10T17:37:18.544Z,52.80
2019-05-10T17:39:46.128Z,53.60
2019-05-10T17:42:13.689Z,53.60
2019-05-10T17:44:43.601Z,56.30
2019-05-10T17:47:10.991Z,58.70
2019-05-10T17:49:38.570Z,61.10
2019-05-10T17:52:06.708Z,63.50
2019-05-10T17:54:39.150Z,66.30
2019-05-10T17:57:04.551Z,69.00
2019-05-10T17:59:32.112Z,71.40
2019-05-10T18:01:59.740Z,75.10
2019-05-10T18:04:27.305Z,76.70
2019-05-10T18:06:54.883Z,78.20
2019-05-10T18:09:22.892Z,79.50
2019-05-10T18:11:50.933Z,80.40
2019-05-10T18:14:19.756Z,82.00
2019-05-10T18:16:49.954Z,83.70
2019-05-10T18:19:19.093Z,84.10
2019-05-10T18:21:47.776Z,84.40
2019-05-10T18:24:15.910Z,84.50
2019-05-10T18:26:43.508Z,85.00
2019-05-10T18:29:11.161Z,85.20
2019-05-10T18:31:38.957Z,85.80
2019-05-10T18:34:06.575Z,87.90
2019-05-10T18:36:51.154Z,89.40
2019-05-10T18:39:09.136Z,90.00
2019-05-10T18:41:35.856Z,90.30
2019-05-10T18:44:03.759Z,90.50
2019-05-10T18:46:31.288Z,90.80
2019-05-10T18:48:59.444Z,91.10
2019-05-10T18:51:27.349Z,91.40
2019-05-10T18:53:55.229Z,91.60
2019-05-10T18:56:25.312Z,91.70
2019-05-10T18:58:52.596Z,91.90
2019-05-10T19:01:20.693Z,92.10
2019-05-10T19:03:48.592Z,92.30
2019-05-10T19:06:16.912Z,92.30
2019-05-10T19:08:44.736Z,92.40
2019-05-10T19:11:12.893Z,92.50
2019-05-10T19:13:48.198Z,92.60
2019-05-10T19:16:10.341Z,92.80
2019-05-10T19:18:38.268Z,93.10
2019-05-10T19:21:05.767Z,93.10
2019-05-10T19:23:33.317Z,93.20
2019-05-10T19:26:01.262Z,93.10
2019-05-10T19:28:29.201Z,92.80
2019-05-10T19:30:58.648Z,92.50
2019-05-10T19:33:29.878Z,92.50
2019-05-10T19:35:56.620Z,92.40
2019-05-10T19:38:24.203Z,92.60
2019-05-10T19:40:52.110Z,93.50
2019-05-10T19:43:21.691Z,93.30
2019-05-10T19:45:51.086Z,93.30
2019-05-10T19:48:20.135Z,93.40
2019-05-10T19:50:47.867Z,93.80
2019-05-10T19:53:15.655Z,94.10
2019-05-10T19:55:43.811Z,94.30
2019-05-10T19:58:11.276Z,94.40
2019-05-10T20:00:38.974Z,94.50
2019-05-10T20:03:06.828Z,94.70
2019-05-10T20:05:34.733Z,94.70
2019-05-10T20:08:02.708Z,94.70
2019-05-10T20:10:30.601Z,94.80
2019-05-10T20:12:58.559Z,94.70
2019-05-10T20:15:26.116Z,94.80
2019-05-10T20:17:53.926Z,94.90
2019-05-10T20:20:21.572Z,95.00
2019-05-10T20:22:49.775Z,95.00
2019-05-10T20:25:17.438Z,95.10
2019-05-10T20:27:45.615Z,95.30
2019-05-10T20:30:13.180Z,95.40
2019-05-10T20:32:40.704Z,95.40
2019-05-10T20:35:08.887Z,95.30
2019-05-10T20:37:36.502Z,95.50
2019-05-10T20:40:04.658Z,95.80
2019-05-10T20:42:33.119Z,95.90
2019-05-10T20:45:07.483Z,96.10
2019-05-10T20:47:30.231Z,96.30
2019-05-10T20:49:57.821Z,96.50
2019-05-10T20:52:25.774Z,96.90
2019-05-10T20:54:53.341Z,97.20
2019-05-10T20:57:21.194Z,97.10
2019-05-10T20:59:49.095Z,97.10
2019-05-10T21:02:17.294Z,97.60
2019-05-10T21:04:45.545Z,97.90
2019-05-10T21:07:13.138Z,98.60
2019-05-10T21:09:41.056Z,99.00
2019-05-10T21:12:09.185Z,99.20
2019-05-10T21:14:37.432Z,99.20
2019-05-10T21:17:05.256Z,99.20
2019-05-10T21:19:32.854Z,99.20
2019-05-10T21:22:01.113Z,99.30
2019-05-10T21:24:28.666Z,99.40
2019-05-10T21:26:56.560Z,99.50
2019-05-10T21:29:24.464Z,99.80
2019-05-10T21:31:52.021Z,99.70
2019-05-10T21:34:19.774Z,99.80
2019-05-10T21:36:47.329Z,99.80
2019-05-10T21:39:15.049Z,99.80
2019-05-10T21:41:42.857Z,99.90
2019-05-10T21:44:10.780Z,99.90
2019-05-10T21:46:38.336Z,99.70
2019-05-10T21:49:06.189Z,99.90
2019-05-10T21:51:34.047Z,99.90
2019-05-10T21:54:02.216Z,99.90
2019-05-10T21:56:30.093Z,99.80
2019-05-10T21:58:57.578Z,99.90
2019-05-10T22:01:25.430Z,99.90
2019-05-10T22:03:52.951Z,99.90
2019-05-10T22:06:20.407Z,99.90
2019-05-10T22:08:49.707Z,99.90
2019-05-10T22:11:17.914Z,99.90
2019-05-10T22:13:45.475Z,99.90
2019-05-10T22:16:14.335Z,99.90
2019-05-10T22:18:42.304Z,99.90
2019-05-10T22:21:09.892Z,99.90
2019-05-10T22:23:37.410Z,99.90
2019-05-10T22:26:05.566Z,99.90
2019-05-10T22:28:33.439Z,99.90
2019-05-10T22:31:00.960Z,99.90
2019-05-10T22:33:29.114Z,99.90
2019-05-10T22:35:57.122Z,99.90
2019-05-10T22:38:24.565Z,99.90
2019-05-10T22:40:52.155Z,99.90
2019-05-10T22:43:19.733Z,99.90
2019-05-10T22:45:47.615Z,99.90
2019-05-10T22:48:15.496Z,99.90
2019-05-10T22:50:43.021Z,99.90
2019-05-10T22:53:10.677Z,99.90
2019-05-10T22:55:38.220Z,99.90
2019-05-10T22:58:06.146Z,99.90
2019-05-10T23:00:33.966Z,99.90
2019-05-10T23:03:01.877Z,99.90
2019-05-10T23:05:29.391Z,99.90
2019-05-10T23:07:56.841Z,99.90
2019-05-10T23:10:24.757Z,99.90
2019-05-10T23:12:52.255Z,99.90
2019-05-10T23:15:20.020Z,99.90
2019-05-10T23:17:47.480Z,99.90
2019-05-10T23:20:15.059Z,99.90
2019-05-10T23:22:42.640Z,99.90
2019-05-10T23:25:10.204Z,99.90
2019-05-10T23:27:37.906Z,99.90
2019-05-10T23:30:05.376Z,99.90
2019-05-10T23:32:33.308Z,99.90
2019-05-10T23:35:01.252Z,99.90
2019-05-10T23:37:28.785Z,99.90
2019-05-10T23:39:56.738Z,99.90
2019-05-10T23:42:24.338Z,99.90
2019-05-10T23:44:51.868Z,99.90
2019-05-10T23:47:20.034Z,99.90
2019-05-10T23:49:47.552Z,99.90
2019-05-10T23:52:15.435Z,99.90
2019-05-10T23:54:43.289Z,99.90
2019-05-10T23:57:11.448Z,99.90
2019-05-10T23:59:39.211Z,99.90
